sensor_id;sensor_type;location;lat;lon;timestamp;temperature;humidity
76897;SHT30;65856;52.178;21.176;2023-10-09T00:01:49;5.55;62.23
76897;SHT30;65856;52.178;21.176;2023-10-09T00:04:16;5.52;62.27
76897;SHT30;65856;52.178;21.176;2023-10-09T00:06:43;5.47;62.20
76897;SHT30;65856;52.178;21.176;2023-10-09T00:09:09;5.39;62.24
76897;SHT30;65856;52.178;21.176;2023-10-09T00:11:42;5.35;62.47
76897;SHT30;65856;52.178;21.176;2023-10-09T00:14:09;5.34;62.64
76897;SHT30;65856;52.178;21.176;2023-10-09T00:16:37;5.33;62.72
76897;SHT30;65856;52.178;21.176;2023-10-09T00:19:12;5.32;62.85
76897;SHT30;65856;52.178;21.176;2023-10-09T00:21:45;5.28;62.73
76897;SHT30;65856;52.178;21.176;2023-10-09T00:24:13;5.22;62.82
76897;SHT30;65856;52.178;21.176;2023-10-09T00:26:48;5.22;62.93
76897;SHT30;65856;52.178;21.176;2023-10-09T00:29:14;5.21;62.86
76897;SHT30;65856;52.178;21.176;2023-10-09T00:31:50;5.16;62.92
76897;SHT30;65856;52.178;21.176;2023-10-09T00:34:28;5.11;63.19
76897;SHT30;65856;52.178;21.176;2023-10-09T00:36:54;5.09;63.31
76897;SHT30;65856;52.178;21.176;2023-10-09T00:39:22;5.06;63.32
76897;SHT30;65856;52.178;21.176;2023-10-09T00:42:06;5.03;63.35
76897;SHT30;65856;52.178;21.176;2023-10-09T00:44:32;4.99;63.30
76897;SHT30;65856;52.178;21.176;2023-10-09T00:47:14;4.95;63.33
76897;SHT30;65856;52.178;21.176;2023-10-09T00:50:01;4.90;63.60
76897;SHT30;65856;52.178;21.176;2023-10-09T00:52:36;4.91;63.76
76897;SHT30;65856;52.178;21.176;2023-10-09T00:55:14;4.91;63.85
76897;SHT30;65856;52.178;21.176;2023-10-09T00:57:52;4.89;63.90
76897;SHT30;65856;52.178;21.176;2023-10-09T01:00:27;4.86;64.05
76897;SHT30;65856;52.178;21.176;2023-10-09T01:03:11;4.85;64.10
76897;SHT30;65856;52.178;21.176;2023-10-09T01:08:20;4.83;63.83
76897;SHT30;65856;52.178;21.176;2023-10-09T01:10:57;4.78;63.93
76897;SHT30;65856;52.178;21.176;2023-10-09T01:13:34;4.74;64.11
76897;SHT30;65856;52.178;21.176;2023-10-09T01:16:18;4.73;64.35
76897;SHT30;65856;52.178;21.176;2023-10-09T01:18:50;4.74;64.45
76897;SHT30;65856;52.178;21.176;2023-10-09T01:21:22;4.75;64.56
76897;SHT30;65856;52.178;21.176;2023-10-09T01:23:50;4.74;64.67
76897;SHT30;65856;52.178;21.176;2023-10-09T01:26:37;4.70;64.74
76897;SHT30;65856;52.178;21.176;2023-10-09T01:29:21;4.68;64.84
76897;SHT30;65856;52.178;21.176;2023-10-09T01:31:55;4.69;64.89
76897;SHT30;65856;52.178;21.176;2023-10-09T01:34:32;4.70;64.90
76897;SHT30;65856;52.178;21.176;2023-10-09T01:37:10;4.70;65.09
76897;SHT30;65856;52.178;21.176;2023-10-09T01:39:53;4.68;65.11
76897;SHT30;65856;52.178;21.176;2023-10-09T01:42:23;4.66;65.16
76897;SHT30;65856;52.178;21.176;2023-10-09T01:44:55;4.64;65.24
76897;SHT30;65856;52.178;21.176;2023-10-09T01:47:23;4.62;65.34
76897;SHT30;65856;52.178;21.176;2023-10-09T01:49:50;4.64;65.45
76897;SHT30;65856;52.178;21.176;2023-10-09T01:52:18;4.63;65.39
76897;SHT30;65856;52.178;21.176;2023-10-09T01:54:45;4.60;65.48
76897;SHT30;65856;52.178;21.176;2023-10-09T01:57:18;4.59;65.72
76897;SHT30;65856;52.178;21.176;2023-10-09T01:59:49;4.61;65.86
76897;SHT30;65856;52.178;21.176;2023-10-09T02:02:18;4.61;66.02
76897;SHT30;65856;52.178;21.176;2023-10-09T02:04:52;4.60;66.34
76897;SHT30;65856;52.178;21.176;2023-10-09T02:07:30;4.60;66.54
76897;SHT30;65856;52.178;21.176;2023-10-09T02:10:05;4.61;66.51
76897;SHT30;65856;52.178;21.176;2023-10-09T02:12:46;4.62;66.58
76897;SHT30;65856;52.178;21.176;2023-10-09T02:15:22;4.65;66.76
76897;SHT30;65856;52.178;21.176;2023-10-09T02:18:10;4.69;66.87
76897;SHT30;65856;52.178;21.176;2023-10-09T02:20:47;4.72;66.95
76897;SHT30;65856;52.178;21.176;2023-10-09T02:23:30;4.74;66.98
76897;SHT30;65856;52.178;21.176;2023-10-09T02:26:03;4.79;66.95
76897;SHT30;65856;52.178;21.176;2023-10-09T02:28:31;4.85;67.12
76897;SHT30;65856;52.178;21.176;2023-10-09T02:31:00;4.86;67.10
76897;SHT30;65856;52.178;21.176;2023-10-09T02:33:35;4.87;67.14
76897;SHT30;65856;52.178;21.176;2023-10-09T02:36:04;4.84;67.10
76897;SHT30;65856;52.178;21.176;2023-10-09T02:38:33;4.88;67.39
76897;SHT30;65856;52.178;21.176;2023-10-09T02:41:01;4.93;67.33
76897;SHT30;65856;52.178;21.176;2023-10-09T02:43:30;4.97;67.40
76897;SHT30;65856;52.178;21.176;2023-10-09T02:46:47;5.03;67.57
76897;SHT30;65856;52.178;21.176;2023-10-09T02:49:12;5.09;67.73
76897;SHT30;65856;52.178;21.176;2023-10-09T02:51:40;5.15;67.86
76897;SHT30;65856;52.178;21.176;2023-10-09T02:54:07;5.18;67.89
76897;SHT30;65856;52.178;21.176;2023-10-09T02:56:49;5.19;67.64
76897;SHT30;65856;52.178;21.176;2023-10-09T02:59:22;5.18;67.77
76897;SHT30;65856;52.178;21.176;2023-10-09T03:01:48;5.20;67.90
76897;SHT30;65856;52.178;21.176;2023-10-09T03:04:17;5.21;67.79
76897;SHT30;65856;52.178;21.176;2023-10-09T03:06:44;5.22;67.84
76897;SHT30;65856;52.178;21.176;2023-10-09T03:09:19;5.25;67.95
76897;SHT30;65856;52.178;21.176;2023-10-09T03:12:00;5.29;67.93
76897;SHT30;65856;52.178;21.176;2023-10-09T03:14:33;5.32;67.80
76897;SHT30;65856;52.178;21.176;2023-10-09T03:17:03;5.31;67.74
76897;SHT30;65856;52.178;21.176;2023-10-09T03:19:31;5.33;67.63
76897;SHT30;65856;52.178;21.176;2023-10-09T03:22:02;5.33;67.80
76897;SHT30;65856;52.178;21.176;2023-10-09T03:24:30;5.32;67.54
76897;SHT30;65856;52.178;21.176;2023-10-09T03:26:59;5.34;67.65
76897;SHT30;65856;52.178;21.176;2023-10-09T03:29:25;5.36;67.54
76897;SHT30;65856;52.178;21.176;2023-10-09T03:31:52;5.36;67.47
76897;SHT30;65856;52.178;21.176;2023-10-09T03:34:20;5.34;67.59
76897;SHT30;65856;52.178;21.176;2023-10-09T03:36:45;5.31;67.84
76897;SHT30;65856;52.178;21.176;2023-10-09T03:39:13;5.32;68.09
76897;SHT30;65856;52.178;21.176;2023-10-09T03:41:58;5.35;68.21
76897;SHT30;65856;52.178;21.176;2023-10-09T03:44:24;5.39;68.26
76897;SHT30;65856;52.178;21.176;2023-10-09T03:46:53;5.41;68.14
76897;SHT30;65856;52.178;21.176;2023-10-09T03:49:20;5.42;68.06
76897;SHT30;65856;52.178;21.176;2023-10-09T03:51:48;5.40;67.91
76897;SHT30;65856;52.178;21.176;2023-10-09T03:54:15;5.40;67.86
76897;SHT30;65856;52.178;21.176;2023-10-09T03:56:45;5.41;68.00
76897;SHT30;65856;52.178;21.176;2023-10-09T03:59:15;5.41;68.09
76897;SHT30;65856;52.178;21.176;2023-10-09T04:01:45;5.42;67.95
76897;SHT30;65856;52.178;21.176;2023-10-09T04:04:13;5.41;67.90
76897;SHT30;65856;52.178;21.176;2023-10-09T04:06:40;5.41;67.90
76897;SHT30;65856;52.178;21.176;2023-10-09T04:09:07;5.40;68.19
76897;SHT30;65856;52.178;21.176;2023-10-09T04:11:53;5.41;68.23
76897;SHT30;65856;52.178;21.176;2023-10-09T04:14:56;5.42;68.43
76897;SHT30;65856;52.178;21.176;2023-10-09T04:17:28;5.42;68.41
76897;SHT30;65856;52.178;21.176;2023-10-09T04:19:54;5.45;68.17
76897;SHT30;65856;52.178;21.176;2023-10-09T04:22:38;5.49;68.09
76897;SHT30;65856;52.178;21.176;2023-10-09T04:25:24;5.47;68.17
76897;SHT30;65856;52.178;21.176;2023-10-09T04:27:54;5.49;68.25
76897;SHT30;65856;52.178;21.176;2023-10-09T04:30:40;5.53;68.31
76897;SHT30;65856;52.178;21.176;2023-10-09T04:33:11;5.51;68.38
76897;SHT30;65856;52.178;21.176;2023-10-09T04:36:42;5.54;68.28
76897;SHT30;65856;52.178;21.176;2023-10-09T04:39:11;5.56;68.25
76897;SHT30;65856;52.178;21.176;2023-10-09T04:41:37;5.60;68.00
76897;SHT30;65856;52.178;21.176;2023-10-09T04:44:09;5.63;67.71
76897;SHT30;65856;52.178;21.176;2023-10-09T04:46:47;5.65;67.53
76897;SHT30;65856;52.178;21.176;2023-10-09T04:49:34;5.68;67.56
76897;SHT30;65856;52.178;21.176;2023-10-09T04:52:46;5.69;67.52
76897;SHT30;65856;52.178;21.176;2023-10-09T04:55:15;5.71;67.38
76897;SHT30;65856;52.178;21.176;2023-10-09T04:57:44;5.73;67.30
76897;SHT30;65856;52.178;21.176;2023-10-09T05:00:25;5.78;68.36
76897;SHT30;65856;52.178;21.176;2023-10-09T05:05:25;5.89;68.09
76897;SHT30;65856;52.178;21.176;2023-10-09T05:08:14;5.88;67.86
76897;SHT30;65856;52.178;21.176;2023-10-09T05:10:43;5.87;67.70
76897;SHT30;65856;52.178;21.176;2023-10-09T05:13:30;5.89;67.51
76897;SHT30;65856;52.178;21.176;2023-10-09T05:16:07;5.89;67.38
76897;SHT30;65856;52.178;21.176;2023-10-09T05:18:52;5.86;67.28
76897;SHT30;65856;52.178;21.176;2023-10-09T05:22:10;5.84;67.15
76897;SHT30;65856;52.178;21.176;2023-10-09T05:24:55;5.84;67.09
76897;SHT30;65856;52.178;21.176;2023-10-09T05:27:25;5.85;67.02
76897;SHT30;65856;52.178;21.176;2023-10-09T05:30:10;5.87;66.94
76897;SHT30;65856;52.178;21.176;2023-10-09T05:32:52;5.85;66.90
76897;SHT30;65856;52.178;21.176;2023-10-09T05:35:36;5.86;66.90
76897;SHT30;65856;52.178;21.176;2023-10-09T05:38:08;5.86;66.80
76897;SHT30;65856;52.178;21.176;2023-10-09T05:41:24;5.90;66.83
76897;SHT30;65856;52.178;21.176;2023-10-09T05:44:11;5.93;67.23
76897;SHT30;65856;52.178;21.176;2023-10-09T05:46:55;5.96;66.95
76897;SHT30;65856;52.178;21.176;2023-10-09T05:49:39;5.98;66.90
76897;SHT30;65856;52.178;21.176;2023-10-09T05:52:14;6.02;66.83
76897;SHT30;65856;52.178;21.176;2023-10-09T05:54:59;6.04;66.91
76897;SHT30;65856;52.178;21.176;2023-10-09T05:57:42;6.07;66.86
76897;SHT30;65856;52.178;21.176;2023-10-09T06:00:20;6.13;67.34
76897;SHT30;65856;52.178;21.176;2023-10-09T06:03:05;6.27;67.14
76897;SHT30;65856;52.178;21.176;2023-10-09T06:08:21;6.30;66.49
76897;SHT30;65856;52.178;21.176;2023-10-09T06:11:04;6.27;66.34
76897;SHT30;65856;52.178;21.176;2023-10-09T06:14:15;6.25;66.37
76897;SHT30;65856;52.178;21.176;2023-10-09T06:16:54;6.25;66.26
76897;SHT30;65856;52.178;21.176;2023-10-09T06:19:23;6.26;66.26
76897;SHT30;65856;52.178;21.176;2023-10-09T06:22:05;6.27;66.34
76897;SHT30;65856;52.178;21.176;2023-10-09T06:24:37;6.30;66.33
76897;SHT30;65856;52.178;21.176;2023-10-09T06:27:10;6.32;66.40
76897;SHT30;65856;52.178;21.176;2023-10-09T06:29:40;6.33;66.30
76897;SHT30;65856;52.178;21.176;2023-10-09T06:32:13;6.35;66.16
76897;SHT30;65856;52.178;21.176;2023-10-09T06:34:45;6.34;66.13
76897;SHT30;65856;52.178;21.176;2023-10-09T06:37:44;6.33;66.08
76897;SHT30;65856;52.178;21.176;2023-10-09T06:40:30;6.32;66.08
76897;SHT30;65856;52.178;21.176;2023-10-09T06:43:18;6.33;65.97
76897;SHT30;65856;52.178;21.176;2023-10-09T06:45:49;6.33;65.91
76897;SHT30;65856;52.178;21.176;2023-10-09T06:48:26;6.33;65.99
76897;SHT30;65856;52.178;21.176;2023-10-09T06:51:02;6.34;65.94
76897;SHT30;65856;52.178;21.176;2023-10-09T06:53:48;6.37;65.93
76897;SHT30;65856;52.178;21.176;2023-10-09T06:56:20;6.39;65.97
76897;SHT30;65856;52.178;21.176;2023-10-09T06:58:56;6.44;65.93
76897;SHT30;65856;52.178;21.176;2023-10-09T07:01:24;6.49;65.89
76897;SHT30;65856;52.178;21.176;2023-10-09T07:03:54;6.53;65.81
76897;SHT30;65856;52.178;21.176;2023-10-09T07:07:01;6.55;65.56
76897;SHT30;65856;52.178;21.176;2023-10-09T07:09:27;6.53;65.55
76897;SHT30;65856;52.178;21.176;2023-10-09T07:12:08;6.57;65.47
76897;SHT30;65856;52.178;21.176;2023-10-09T07:14:38;6.62;65.37
76897;SHT30;65856;52.178;21.176;2023-10-09T07:17:05;6.66;65.45
76897;SHT30;65856;52.178;21.176;2023-10-09T07:19:43;6.74;65.49
76897;SHT30;65856;52.178;21.176;2023-10-09T07:22:16;6.83;65.23
76897;SHT30;65856;52.178;21.176;2023-10-09T07:24:54;6.94;65.13
76897;SHT30;65856;52.178;21.176;2023-10-09T07:30:10;7.36;64.71
76897;SHT30;65856;52.178;21.176;2023-10-09T07:32:54;7.51;64.26
76897;SHT30;65856;52.178;21.176;2023-10-09T07:35:45;7.75;64.10
76897;SHT30;65856;52.178;21.176;2023-10-09T07:41:37;8.40;63.01
76897;SHT30;65856;52.178;21.176;2023-10-09T07:44:04;8.53;62.80
76897;SHT30;65856;52.178;21.176;2023-10-09T07:46:44;8.65;62.48
76897;SHT30;65856;52.178;21.176;2023-10-09T07:49:54;8.78;61.73
76897;SHT30;65856;52.178;21.176;2023-10-09T07:52:24;8.83;61.66
76897;SHT30;65856;52.178;21.176;2023-10-09T07:54:51;8.91;61.21
76897;SHT30;65856;52.178;21.176;2023-10-09T07:57:18;9.00;61.21
76897;SHT30;65856;52.178;21.176;2023-10-09T07:59:52;9.13;61.18
76897;SHT30;65856;52.178;21.176;2023-10-09T08:02:25;9.24;60.46
76897;SHT30;65856;52.178;21.176;2023-10-09T08:05:01;9.30;60.34
76897;SHT30;65856;52.178;21.176;2023-10-09T08:07:32;9.39;60.26
76897;SHT30;65856;52.178;21.176;2023-10-09T08:10:04;9.50;60.00
76897;SHT30;65856;52.178;21.176;2023-10-09T08:12:44;9.66;59.89
76897;SHT30;65856;52.178;21.176;2023-10-09T08:15:11;9.81;59.18
76897;SHT30;65856;52.178;21.176;2023-10-09T08:17:39;9.87;58.77
76897;SHT30;65856;52.178;21.176;2023-10-09T08:20:13;9.88;58.74
76897;SHT30;65856;52.178;21.176;2023-10-09T08:22:42;9.90;58.35
76897;SHT30;65856;52.178;21.176;2023-10-09T08:25:08;9.92;58.65
76897;SHT30;65856;52.178;21.176;2023-10-09T08:27:51;9.96;58.38
76897;SHT30;65856;52.178;21.176;2023-10-09T08:30:20;9.96;58.36
76897;SHT30;65856;52.178;21.176;2023-10-09T08:32:47;9.95;57.93
76897;SHT30;65856;52.178;21.176;2023-10-09T08:35:27;9.93;57.79
76897;SHT30;65856;52.178;21.176;2023-10-09T08:38:02;9.89;58.18
76897;SHT30;65856;52.178;21.176;2023-10-09T08:40:36;9.90;58.17
76897;SHT30;65856;52.178;21.176;2023-10-09T08:43:14;9.89;58.12
76897;SHT30;65856;52.178;21.176;2023-10-09T08:45:54;9.93;58.36
76897;SHT30;65856;52.178;21.176;2023-10-09T08:48:28;9.98;58.06
76897;SHT30;65856;52.178;21.176;2023-10-09T08:50:54;9.98;58.45
76897;SHT30;65856;52.178;21.176;2023-10-09T08:53:21;10.06;58.69
76897;SHT30;65856;52.178;21.176;2023-10-09T08:55:49;10.11;58.37
76897;SHT30;65856;52.178;21.176;2023-10-09T08:58:16;10.17;58.33
76897;SHT30;65856;52.178;21.176;2023-10-09T09:00:50;10.27;58.11
76897;SHT30;65856;52.178;21.176;2023-10-09T09:03:17;10.31;57.89
76897;SHT30;65856;52.178;21.176;2023-10-09T09:05:47;10.34;58.03
76897;SHT30;65856;52.178;21.176;2023-10-09T09:08:26;10.38;58.10
76897;SHT30;65856;52.178;21.176;2023-10-09T09:10:58;10.42;57.95
76897;SHT30;65856;52.178;21.176;2023-10-09T09:13:43;10.43;57.93
76897;SHT30;65856;52.178;21.176;2023-10-09T09:16:15;10.44;57.75
76897;SHT30;65856;52.178;21.176;2023-10-09T09:18:49;10.48;57.99
76897;SHT30;65856;52.178;21.176;2023-10-09T09:21:20;10.56;57.98
76897;SHT30;65856;52.178;21.176;2023-10-09T09:23:53;10.67;58.00
76897;SHT30;65856;52.178;21.176;2023-10-09T09:26:41;10.79;57.62
76897;SHT30;65856;52.178;21.176;2023-10-09T09:29:14;10.88;57.51
76897;SHT30;65856;52.178;21.176;2023-10-09T09:31:52;10.94;56.89
76897;SHT30;65856;52.178;21.176;2023-10-09T09:34:50;10.98;56.75
76897;SHT30;65856;52.178;21.176;2023-10-09T09:37:31;11.02;56.33
76897;SHT30;65856;52.178;21.176;2023-10-09T09:40:07;11.06;56.36
76897;SHT30;65856;52.178;21.176;2023-10-09T09:42:52;11.11;55.79
76897;SHT30;65856;52.178;21.176;2023-10-09T09:45:31;11.16;55.47
76897;SHT30;65856;52.178;21.176;2023-10-09T09:48:05;11.16;55.03
76897;SHT30;65856;52.178;21.176;2023-10-09T09:50:32;11.16;54.73
76897;SHT30;65856;52.178;21.176;2023-10-09T09:53:01;11.24;55.32
76897;SHT30;65856;52.178;21.176;2023-10-09T09:55:33;11.32;54.47
76897;SHT30;65856;52.178;21.176;2023-10-09T09:58:06;11.40;54.35
76897;SHT30;65856;52.178;21.176;2023-10-09T10:00:45;11.39;54.05
76897;SHT30;65856;52.178;21.176;2023-10-09T10:03:26;11.44;54.72
76897;SHT30;65856;52.178;21.176;2023-10-09T10:06:00;11.56;54.26
76897;SHT30;65856;52.178;21.176;2023-10-09T10:08:35;11.61;53.28
76897;SHT30;65856;52.178;21.176;2023-10-09T10:11:04;11.62;53.01
76897;SHT30;65856;52.178;21.176;2023-10-09T10:16:05;11.71;53.32
76897;SHT30;65856;52.178;21.176;2023-10-09T10:18:57;11.76;52.77
76897;SHT30;65856;52.178;21.176;2023-10-09T10:21:35;11.81;52.54
76897;SHT30;65856;52.178;21.176;2023-10-09T10:24:08;11.86;52.03
76897;SHT30;65856;52.178;21.176;2023-10-09T10:35:19;11.97;50.70
76897;SHT30;65856;52.178;21.176;2023-10-09T10:37:46;12.00;50.93
76897;SHT30;65856;52.178;21.176;2023-10-09T10:40:27;12.01;50.59
76897;SHT30;65856;52.178;21.176;2023-10-09T10:43:17;12.02;50.78
76897;SHT30;65856;52.178;21.176;2023-10-09T10:46:12;12.04;50.27
76897;SHT30;65856;52.178;21.176;2023-10-09T10:49:20;12.07;50.35
76897;SHT30;65856;52.178;21.176;2023-10-09T10:51:47;12.09;50.89
76897;SHT30;65856;52.178;21.176;2023-10-09T10:54:23;12.13;50.94
76897;SHT30;65856;52.178;21.176;2023-10-09T10:57:17;12.15;50.79
76897;SHT30;65856;52.178;21.176;2023-10-09T11:00:09;12.18;50.44
76897;SHT30;65856;52.178;21.176;2023-10-09T11:02:39;12.17;50.67
76897;SHT30;65856;52.178;21.176;2023-10-09T11:05:09;12.17;50.90
76897;SHT30;65856;52.178;21.176;2023-10-09T11:07:49;12.20;51.02
76897;SHT30;65856;52.178;21.176;2023-10-09T11:10:21;12.26;50.91
76897;SHT30;65856;52.178;21.176;2023-10-09T11:12:56;12.31;51.08
76897;SHT30;65856;52.178;21.176;2023-10-09T11:15:35;12.34;51.20
76897;SHT30;65856;52.178;21.176;2023-10-09T11:18:22;12.34;51.07
76897;SHT30;65856;52.178;21.176;2023-10-09T11:20:52;12.37;51.17
76897;SHT30;65856;52.178;21.176;2023-10-09T11:23:30;12.42;51.01
76897;SHT30;65856;52.178;21.176;2023-10-09T11:26:01;12.45;50.76
76897;SHT30;65856;52.178;21.176;2023-10-09T11:32:18;12.66;50.22
76897;SHT30;65856;52.178;21.176;2023-10-09T11:34:48;12.72;50.06
76897;SHT30;65856;52.178;21.176;2023-10-09T11:37:40;12.74;49.81
76897;SHT30;65856;52.178;21.176;2023-10-09T11:40:26;12.71;49.69
76897;SHT30;65856;52.178;21.176;2023-10-09T11:43:16;12.71;49.78
76897;SHT30;65856;52.178;21.176;2023-10-09T11:45:41;12.69;49.52
76897;SHT30;65856;52.178;21.176;2023-10-09T11:48:19;12.68;49.70
76897;SHT30;65856;52.178;21.176;2023-10-09T11:51:27;12.64;49.32
76897;SHT30;65856;52.178;21.176;2023-10-09T11:53:53;12.64;49.22
76897;SHT30;65856;52.178;21.176;2023-10-09T11:56:23;12.62;48.98
76897;SHT30;65856;52.178;21.176;2023-10-09T11:58:52;12.59;49.07
76897;SHT30;65856;52.178;21.176;2023-10-09T12:01:18;12.57;49.32
76897;SHT30;65856;52.178;21.176;2023-10-09T12:03:48;12.58;49.17
76897;SHT30;65856;52.178;21.176;2023-10-09T12:06:19;12.59;48.97
76897;SHT30;65856;52.178;21.176;2023-10-09T12:08:55;12.58;49.06
76897;SHT30;65856;52.178;21.176;2023-10-09T12:11:23;12.59;49.13
76897;SHT30;65856;52.178;21.176;2023-10-09T12:13:53;12.59;48.87
76897;SHT30;65856;52.178;21.176;2023-10-09T12:16:23;12.57;48.81
76897;SHT30;65856;52.178;21.176;2023-10-09T12:18:55;12.55;49.15
76897;SHT30;65856;52.178;21.176;2023-10-09T12:21:22;12.57;49.49
76897;SHT30;65856;52.178;21.176;2023-10-09T12:23:48;12.59;49.59
76897;SHT30;65856;52.178;21.176;2023-10-09T12:26:14;12.61;49.80
76897;SHT30;65856;52.178;21.176;2023-10-09T12:28:43;12.64;50.22
76897;SHT30;65856;52.178;21.176;2023-10-09T12:31:11;12.64;50.67
76897;SHT30;65856;52.178;21.176;2023-10-09T12:33:40;12.67;51.07
76897;SHT30;65856;52.178;21.176;2023-10-09T12:36:11;12.67;51.39
76897;SHT30;65856;52.178;21.176;2023-10-09T12:38:45;12.64;51.65
76897;SHT30;65856;52.178;21.176;2023-10-09T12:41:17;12.59;52.19
76897;SHT30;65856;52.178;21.176;2023-10-09T12:43:50;12.57;52.74
76897;SHT30;65856;52.178;21.176;2023-10-09T12:46:17;12.58;52.92
76897;SHT30;65856;52.178;21.176;2023-10-09T12:48:47;12.59;53.14
76897;SHT30;65856;52.178;21.176;2023-10-09T12:51:14;12.59;53.20
76897;SHT30;65856;52.178;21.176;2023-10-09T12:53:45;12.58;53.59
76897;SHT30;65856;52.178;21.176;2023-10-09T12:56:21;12.60;53.96
76897;SHT30;65856;52.178;21.176;2023-10-09T12:59:03;12.60;53.96
76897;SHT30;65856;52.178;21.176;2023-10-09T13:01:31;12.60;54.28
76897;SHT30;65856;52.178;21.176;2023-10-09T13:04:00;12.57;54.55
76897;SHT30;65856;52.178;21.176;2023-10-09T13:06:26;12.57;54.78
76897;SHT30;65856;52.178;21.176;2023-10-09T13:08:52;12.59;55.01
76897;SHT30;65856;52.178;21.176;2023-10-09T13:11:21;12.58;55.05
76897;SHT30;65856;52.178;21.176;2023-10-09T13:13:46;12.56;55.17
76897;SHT30;65856;52.178;21.176;2023-10-09T13:16:13;12.57;55.33
76897;SHT30;65856;52.178;21.176;2023-10-09T13:18:50;12.59;55.29
76897;SHT30;65856;52.178;21.176;2023-10-09T13:21:21;12.56;55.16
76897;SHT30;65856;52.178;21.176;2023-10-09T13:23:56;12.50;55.07
76897;SHT30;65856;52.178;21.176;2023-10-09T13:26:23;12.41;55.15
76897;SHT30;65856;52.178;21.176;2023-10-09T13:28:53;12.39;55.52
76897;SHT30;65856;52.178;21.176;2023-10-09T13:31:21;12.40;55.82
76897;SHT30;65856;52.178;21.176;2023-10-09T13:33:54;12.40;55.86
76897;SHT30;65856;52.178;21.176;2023-10-09T13:36:20;12.38;55.92
76897;SHT30;65856;52.178;21.176;2023-10-09T13:39:03;12.36;56.06
76897;SHT30;65856;52.178;21.176;2023-10-09T13:41:57;12.36;56.57
76897;SHT30;65856;52.178;21.176;2023-10-09T13:44:27;12.34;56.23
76897;SHT30;65856;52.178;21.176;2023-10-09T13:46:56;12.32;56.12
76897;SHT30;65856;52.178;21.176;2023-10-09T13:49:24;12.27;56.36
76897;SHT30;65856;52.178;21.176;2023-10-09T13:51:57;12.22;56.80
76897;SHT30;65856;52.178;21.176;2023-10-09T13:54:28;12.18;57.20
76897;SHT30;65856;52.178;21.176;2023-10-09T13:57:03;12.13;57.36
76897;SHT30;65856;52.178;21.176;2023-10-09T13:59:30;12.08;57.16
76897;SHT30;65856;52.178;21.176;2023-10-09T14:01:57;12.05;57.08
76897;SHT30;65856;52.178;21.176;2023-10-09T14:04:24;12.00;57.21
76897;SHT30;65856;52.178;21.176;2023-10-09T14:06:54;11.94;57.35
76897;SHT30;65856;52.178;21.176;2023-10-09T14:09:24;11.93;57.53
76897;SHT30;65856;52.178;21.176;2023-10-09T14:12:02;11.83;57.66
76897;SHT30;65856;52.178;21.176;2023-10-09T14:14:35;11.75;57.88
76897;SHT30;65856;52.178;21.176;2023-10-09T14:17:12;11.68;58.12
76897;SHT30;65856;52.178;21.176;2023-10-09T14:19:40;11.61;58.48
76897;SHT30;65856;52.178;21.176;2023-10-09T14:22:11;11.57;58.68
76897;SHT30;65856;52.178;21.176;2023-10-09T14:24:44;11.53;58.70
76897;SHT30;65856;52.178;21.176;2023-10-09T14:27:15;11.49;58.95
76897;SHT30;65856;52.178;21.176;2023-10-09T14:29:47;11.44;59.27
76897;SHT30;65856;52.178;21.176;2023-10-09T14:32:14;11.42;59.70
76897;SHT30;65856;52.178;21.176;2023-10-09T14:34:44;11.39;60.03
76897;SHT30;65856;52.178;21.176;2023-10-09T14:37:16;11.35;60.37
76897;SHT30;65856;52.178;21.176;2023-10-09T14:39:44;11.37;60.54
76897;SHT30;65856;52.178;21.176;2023-10-09T14:42:20;11.37;60.56
76897;SHT30;65856;52.178;21.176;2023-10-09T14:44:48;11.34;60.68
76897;SHT30;65856;52.178;21.176;2023-10-09T14:47:15;11.34;60.53
76897;SHT30;65856;52.178;21.176;2023-10-09T14:49:46;11.33;60.40
76897;SHT30;65856;52.178;21.176;2023-10-09T14:52:14;11.31;60.52
76897;SHT30;65856;52.178;21.176;2023-10-09T14:54:45;11.25;60.56
76897;SHT30;65856;52.178;21.176;2023-10-09T14:57:11;11.22;60.78
76897;SHT30;65856;52.178;21.176;2023-10-09T14:59:38;11.21;60.94
76897;SHT30;65856;52.178;21.176;2023-10-09T15:02:05;11.19;61.04
76897;SHT30;65856;52.178;21.176;2023-10-09T15:04:32;11.14;61.17
76897;SHT30;65856;52.178;21.176;2023-10-09T15:07:01;11.12;61.30
76897;SHT30;65856;52.178;21.176;2023-10-09T15:09:26;11.10;61.37
76897;SHT30;65856;52.178;21.176;2023-10-09T15:11:56;11.08;61.66
76897;SHT30;65856;52.178;21.176;2023-10-09T15:14:23;11.05;61.56
76897;SHT30;65856;52.178;21.176;2023-10-09T15:16:48;11.05;61.61
76897;SHT30;65856;52.178;21.176;2023-10-09T15:19:15;11.02;61.84
76897;SHT30;65856;52.178;21.176;2023-10-09T15:21:41;10.98;62.21
76897;SHT30;65856;52.178;21.176;2023-10-09T15:24:12;10.94;62.49
76897;SHT30;65856;52.178;21.176;2023-10-09T15:26:44;10.93;62.83
76897;SHT30;65856;52.178;21.176;2023-10-09T15:29:17;10.87;63.01
76897;SHT30;65856;52.178;21.176;2023-10-09T15:31:48;10.83;63.26
76897;SHT30;65856;52.178;21.176;2023-10-09T15:34:17;10.77;63.45
76897;SHT30;65856;52.178;21.176;2023-10-09T15:36:45;10.74;63.64
76897;SHT30;65856;52.178;21.176;2023-10-09T15:39:14;10.69;63.68
76897;SHT30;65856;52.178;21.176;2023-10-09T15:41:44;10.60;63.72
76897;SHT30;65856;52.178;21.176;2023-10-09T15:44:11;10.53;63.85
76897;SHT30;65856;52.178;21.176;2023-10-09T15:46:38;10.48;63.90
76897;SHT30;65856;52.178;21.176;2023-10-09T15:49:05;10.42;63.92
76897;SHT30;65856;52.178;21.176;2023-10-09T15:51:34;10.35;64.10
76897;SHT30;65856;52.178;21.176;2023-10-09T15:54:00;10.29;64.06
76897;SHT30;65856;52.178;21.176;2023-10-09T15:56:26;10.19;64.13
76897;SHT30;65856;52.178;21.176;2023-10-09T15:58:52;10.09;64.33
76897;SHT30;65856;52.178;21.176;2023-10-09T16:01:18;10.03;64.55
76897;SHT30;65856;52.178;21.176;2023-10-09T16:03:45;9.98;64.60
76897;SHT30;65856;52.178;21.176;2023-10-09T16:06:16;9.93;64.58
76897;SHT30;65856;52.178;21.176;2023-10-09T16:08:43;9.86;64.78
76897;SHT30;65856;52.178;21.176;2023-10-09T16:11:18;9.80;64.82
76897;SHT30;65856;52.178;21.176;2023-10-09T16:13:50;9.70;64.97
76897;SHT30;65856;52.178;21.176;2023-10-09T16:16:27;9.62;65.16
76897;SHT30;65856;52.178;21.176;2023-10-09T16:18:56;9.55;65.20
76897;SHT30;65856;52.178;21.176;2023-10-09T16:21:25;9.48;65.30
76897;SHT30;65856;52.178;21.176;2023-10-09T16:23:52;9.45;65.45
76897;SHT30;65856;52.178;21.176;2023-10-09T16:26:19;9.44;65.21
76897;SHT30;65856;52.178;21.176;2023-10-09T16:28:49;9.35;65.33
76897;SHT30;65856;52.178;21.176;2023-10-09T16:31:17;9.24;65.63
76897;SHT30;65856;52.178;21.176;2023-10-09T16:33:48;9.18;65.70
76897;SHT30;65856;52.178;21.176;2023-10-09T16:36:16;9.13;65.72
76897;SHT30;65856;52.178;21.176;2023-10-09T16:38:42;9.07;65.96